Lexington, GA (30648)

1:12 PM EST on December 21, 2014 (GMT -0500)
Wyndfield | Change Station
CLOSE
Current Station
Personal Weather Station
Location: Athens-Clarke County, GA
Elevation: 647 ft
Nearby Weather Stations

Elev 647 ft 33.91 °N, 83.30 °W | Updated 37 seconds ago

Overcast
Overcast
49.3 °F
Feels Like 49 °F
N
0.0
Wind Variable Wind from East
Gusts 0.0 mph

Today
High -- | Low -- °F
--% Chance of Precip.
Yesterday
High -- | Low -- °F
Precip. -- in
7:33 AM 5:27 PM
Waning Crescent, 0% visible
Pressure 30.19 in
Visibility 7.0 miles
Clouds Overcast 1000 ft
Windchill 49 °F
Dew Point 35 °F
Humidity 57%
Rainfall 0.00 in
Snow Depth Not available.
UV 1 out of 12
Pollen .10 out of 12
Air Quality Not available.
Flu Activity Not available.
METAR KAHN 211751Z 07006KT 7SM OVC010 09/07 A3018 RMK AO2 SLP222 60001 T00940067 10094 20061 58019

More Conditions Fewer Conditions

Pressure 30.19 in
Visibility 7.0 miles
Clouds Overcast 1000 ft
Windchill 49 °F
Dew Point 35 °F
Humidity 57%
Rainfall 0.00 in
Snow Depth Not available.
UV 1 out of 12
Pollen .10 out of 12
Air Quality Not available.
Flu Activity Not available.
METAR KAHN 211751Z 07006KT 7SM OVC010 09/07 A3018 RMK AO2 SLP222 60001 T00940067 10094 20061 58019

More Conditions Fewer Conditions

10-Day Weather Forecast

Almanac

Astronomy

Dec. 21, 2014 Rise Set
Actual Time
Civil Twilight
Nautical Twilight
Astronomical Twilight
Moon
Length of Visible Light
Length of Day
Tomorrow will be .
, % of the Moon is Illuminated

Today's Extremes

State Highs State Lows

Community

WunderPhotos

Upload Photos

1,779,444 photos uploaded!

WunderBlogs® & News

Nearby

Air Quality

  Air Quality AQ Index Pollutant
Not available.

Snow Depth

Station Depth Elevation

Earthquake Activity

City Distance Mag. Time & Date
Minimum magnitude displayed is 2.5.

Coastal Water Temperatures

Place Temperature

Nearby Weather Stations